createdAt,value
2023-05-19T00:00:27.777Z,13745.8574
2023-05-19T00:01:35.813Z,13746.0000
2023-05-19T00:02:44.112Z,13748.2861
2023-05-19T00:03:52.069Z,13748.2139
2023-05-19T00:05:00.145Z,13747.3574
2023-05-19T00:06:08.276Z,13744.7139
2023-05-19T00:07:16.238Z,13742.0000
2023-05-19T00:08:24.314Z,13736.2139
2023-05-19T00:09:32.389Z,13737.7861
2023-05-19T00:10:40.435Z,13737.0000
2023-05-19T00:11:48.664Z,13736.7139
2023-05-19T00:12:56.565Z,13741.6426
2023-05-19T00:14:04.472Z,13745.7861
2023-05-19T00:15:12.535Z,13746.2861
2023-05-19T00:16:20.648Z,13746.1426
2023-05-19T00:17:28.876Z,13743.3574
2023-05-19T00:18:36.868Z,13744.8574
2023-05-19T00:19:44.913Z,13744.5000
2023-05-19T00:20:52.959Z,13744.2139
2023-05-19T00:22:01.117Z,13743.4287
2023-05-19T00:23:09.238Z,13748.0713
2023-05-19T00:24:17.330Z,13751.2139
2023-05-19T00:25:25.301Z,13753.2861
2023-05-19T00:26:33.358Z,13747.2139
2023-05-19T00:27:41.421Z,13743.1426
2023-05-19T00:28:49.401Z,13740.7139
2023-05-19T00:29:57.470Z,13745.8574
2023-05-19T00:31:05.460Z,13747.7861
2023-05-19T00:32:13.745Z,13747.5000
2023-05-19T00:33:21.759Z,13745.5713
2023-05-19T00:34:29.905Z,13746.5713
2023-05-19T00:35:37.999Z,13749.0713
2023-05-19T00:36:45.922Z,13744.5713
2023-05-19T00:37:54.009Z,13744.1426
2023-05-19T00:39:02.086Z,13745.4287
2023-05-19T00:40:10.197Z,13743.8574
2023-05-19T00:41:18.189Z,13742.0713
2023-05-19T00:42:26.384Z,13747.0000
2023-05-19T00:43:34.205Z,13742.5713
2023-05-19T00:44:42.231Z,13743.2139
2023-05-19T00:45:50.377Z,13745.5000
2023-05-19T00:46:58.570Z,13748.0713
2023-05-19T00:48:06.643Z,13749.6426
2023-05-19T00:49:14.611Z,13743.4287
2023-05-19T00:50:22.722Z,13745.7861
2023-05-19T00:51:30.812Z,13746.1426
2023-05-19T00:52:38.815Z,13747.0713
2023-05-19T00:53:46.898Z,13748.0000
2023-05-19T00:54:54.957Z,13748.2861
2023-05-19T00:56:03.072Z,13750.0000
2023-05-19T00:57:11.210Z,13748.4287
2023-05-19T00:58:18.987Z,13754.0000
2023-05-19T00:59:27.071Z,13751.5713
2023-05-19T01:00:35.372Z,13751.7139
2023-05-19T01:01:43.625Z,13752.0000
2023-05-19T01:02:51.511Z,13750.7139
2023-05-19T01:03:59.653Z,13752.1426
2023-05-19T01:05:07.562Z,13750.6426
2023-05-19T01:06:15.794Z,13749.5000
2023-05-19T01:07:23.631Z,13753.7139
2023-05-19T01:08:31.812Z,13749.7139
2023-05-19T01:09:39.737Z,13749.0713
2023-05-19T01:10:47.820Z,13749.3574
2023-05-19T01:11:55.954Z,13753.5713
2023-05-19T01:13:03.820Z,13753.9287
2023-05-19T01:14:11.962Z,13756.7861
2023-05-19T01:15:19.958Z,13757.5000
2023-05-19T01:16:28.140Z,13761.5000
2023-05-19T01:17:36.370Z,13759.2861
2023-05-19T01:18:44.548Z,13761.2861
2023-05-19T01:19:52.469Z,13759.0000
2023-05-19T01:21:00.396Z,13759.6426
2023-05-19T01:22:08.434Z,13760.1426
2023-05-19T01:23:16.805Z,13762.2861
2023-05-19T01:24:24.710Z,13762.7139
2023-05-19T01:25:32.707Z,13761.2861
2023-05-19T01:26:40.715Z,13760.2861
2023-05-19T01:27:48.597Z,13761.5000
2023-05-19T01:28:56.678Z,13760.9287
2023-05-19T01:30:04.757Z,13759.7861
2023-05-19T01:31:13.072Z,13758.5000
2023-05-19T01:32:21.084Z,13753.0000
2023-05-19T01:33:29.232Z,13749.9287
2023-05-19T01:34:37.198Z,13752.6426
2023-05-19T01:35:45.170Z,13755.7861
2023-05-19T01:36:53.316Z,13756.0000
2023-05-19T01:38:01.493Z,13753.0000
2023-05-19T01:39:09.352Z,13757.4287
2023-05-19T01:40:17.412Z,13760.2139
2023-05-19T01:41:25.622Z,13760.8574
2023-05-19T01:42:33.453Z,13754.5000
2023-05-19T01:43:41.472Z,13754.9287
2023-05-19T01:44:49.547Z,13755.2139
2023-05-19T01:45:57.730Z,13757.5000
2023-05-19T01:47:05.704Z,13757.2861
2023-05-19T01:48:13.937Z,13757.4287
2023-05-19T01:49:22.051Z,13759.7139
2023-05-19T01:50:30.190Z,13758.2861
2023-05-19T01:51:38.068Z,13759.5000
2023-05-19T01:52:46.192Z,13759.5000
2023-05-19T01:53:54.198Z,13758.2139
2023-05-19T01:55:02.217Z,13758.9287
2023-05-19T01:56:10.335Z,13758.0713
2023-05-19T01:57:18.230Z,13753.7139
2023-05-19T01:58:26.298Z,13754.0000
2023-05-19T01:59:34.367Z,13751.8574
2023-05-19T02:00:42.536Z,13753.2861
2023-05-19T02:01:50.564Z,13755.6426
2023-05-19T02:02:58.725Z,13755.5000
2023-05-19T02:04:06.765Z,13756.5713
2023-05-19T02:05:14.975Z,13759.7861
2023-05-19T02:06:22.819Z,13756.9287
2023-05-19T02:07:30.971Z,13757.8574
2023-05-19T02:08:38.992Z,13758.7861
2023-05-19T02:09:47.051Z,13755.3574
2023-05-19T02:10:55.155Z,13754.7861
2023-05-19T02:12:03.070Z,13757.2861
2023-05-19T02:13:11.100Z,13755.8574
2023-05-19T02:14:19.168Z,13758.3574
2023-05-19T02:15:27.371Z,13757.8574
2023-05-19T02:16:35.448Z,13759.8574
2023-05-19T02:17:43.679Z,13761.5000
2023-05-19T02:18:51.622Z,13755.7861
2023-05-19T02:19:59.619Z,13757.2861
2023-05-19T02:21:07.881Z,13757.4287
2023-05-19T02:22:15.802Z,13757.2139
2023-05-19T02:23:23.813Z,13758.4287
2023-05-19T02:24:31.881Z,13762.2861
2023-05-19T02:25:39.943Z,13761.2139
2023-05-19T02:26:47.859Z,13759.8574
2023-05-19T02:27:55.980Z,13766.6426
2023-05-19T02:29:04.011Z,13765.6426
2023-05-19T02:30:12.459Z,13765.1426
2023-05-19T02:31:20.304Z,13766.0713
2023-05-19T02:32:28.351Z,13765.3574
2023-05-19T02:33:36.459Z,13767.1426
2023-05-19T02:34:44.465Z,13763.5713
2023-05-19T02:35:52.523Z,13768.3574
2023-05-19T02:37:00.728Z,13767.9287
2023-05-19T02:38:08.641Z,13771.7861
2023-05-19T02:39:16.732Z,13767.5713
2023-05-19T02:40:24.729Z,13769.1426
2023-05-19T02:41:32.693Z,13767.1426
2023-05-19T02:42:40.756Z,13767.8574
2023-05-19T02:43:48.807Z,13764.9287
2023-05-19T02:44:57.090Z,13765.0713
2023-05-19T02:46:05.118Z,13769.8574
2023-05-19T02:47:13.119Z,13765.3574
2023-05-19T02:48:21.077Z,13766.5713
2023-05-19T02:49:29.259Z,13768.0000
2023-05-19T02:50:37.343Z,13767.2861
2023-05-19T02:51:45.527Z,13768.2861
2023-05-19T02:52:53.498Z,13766.2861
2023-05-19T02:54:01.630Z,13764.1426
2023-05-19T02:55:09.559Z,13764.7861
2023-05-19T02:56:17.688Z,13768.1426
2023-05-19T02:57:25.572Z,13767.5000
2023-05-19T02:58:33.650Z,13765.6426
2023-05-19T02:59:42.102Z,13764.0713
2023-05-19T03:00:49.881Z,13766.2139
2023-05-19T03:01:58.015Z,13769.4287
2023-05-19T03:03:06.096Z,13772.9287
2023-05-19T03:04:14.082Z,13772.7861
2023-05-19T03:05:22.132Z,13770.6426
2023-05-19T03:06:30.212Z,13765.1426
2023-05-19T03:07:38.349Z,13765.6426
2023-05-19T03:08:46.306Z,13770.3574
2023-05-19T03:09:54.383Z,13773.1426
2023-05-19T03:11:02.328Z,13773.3574
2023-05-19T03:12:10.395Z,13770.9287
2023-05-19T03:13:18.446Z,13772.9287
2023-05-19T03:14:26.611Z,13772.1426
2023-05-19T03:15:34.695Z,13770.7139
2023-05-19T03:16:42.784Z,13770.8574
2023-05-19T03:17:50.933Z,13773.2861
2023-05-19T03:18:58.984Z,13770.3574
2023-05-19T03:20:06.931Z,13770.5000
2023-05-19T03:21:14.847Z,13769.2139
2023-05-19T03:22:23.010Z,13769.0000
2023-05-19T03:23:31.099Z,13772.0000
2023-05-19T03:24:39.201Z,13774.0000
2023-05-19T03:25:47.068Z,13773.0000
2023-05-19T03:26:55.160Z,13772.1426
2023-05-19T03:28:03.173Z,13771.8574
2023-05-19T03:29:11.476Z,13773.7861
2023-05-19T03:30:19.461Z,13770.5713
2023-05-19T03:31:27.504Z,13774.8574
2023-05-19T03:32:35.604Z,13775.0713
2023-05-19T03:33:43.853Z,13772.3574
2023-05-19T03:34:51.800Z,13774.7139
2023-05-19T03:35:59.786Z,13772.0713
2023-05-19T03:37:07.860Z,13774.3574
2023-05-19T03:38:15.871Z,13774.5000
2023-05-19T03:39:23.914Z,13775.8574
2023-05-19T03:40:32.136Z,13776.0000
2023-05-19T03:41:39.934Z,13774.4287
2023-05-19T03:42:47.963Z,13773.2861
2023-05-19T03:43:56.190Z,13774.8574
2023-05-19T03:45:04.226Z,13773.4287
2023-05-19T03:46:12.334Z,13774.5000
2023-05-19T03:47:20.452Z,13776.7139
2023-05-19T03:48:28.390Z,13775.1426
2023-05-19T03:49:36.442Z,13771.9287
2023-05-19T03:50:44.837Z,13773.2139
2023-05-19T03:51:52.637Z,13770.4287
2023-05-19T03:53:00.679Z,13768.8574
2023-05-19T03:54:08.672Z,13773.4287
2023-05-19T03:55:16.634Z,13768.0000
2023-05-19T03:56:24.678Z,13772.1426
2023-05-19T03:57:32.774Z,13772.6426
2023-05-19T03:58:40.969Z,13773.5713
2023-05-19T03:59:49.011Z,13768.4287
2023-05-19T04:00:57.054Z,13771.6426
2023-05-19T04:02:05.586Z,13767.1426
2023-05-19T04:03:13.265Z,13766.5713
2023-05-19T04:04:21.274Z,13766.6426
2023-05-19T04:05:29.301Z,13766.0000
2023-05-19T04:06:37.331Z,13770.5713
2023-05-19T04:07:45.623Z,13772.1426
2023-05-19T04:08:53.501Z,13768.2861
2023-05-19T04:10:01.423Z,13772.4287
2023-05-19T04:11:09.468Z,13771.5713
2023-05-19T04:12:17.552Z,13771.0713
2023-05-19T04:13:25.943Z,13773.0000
2023-05-19T04:14:33.829Z,13772.8574
2023-05-19T04:15:41.918Z,13772.9287
2023-05-19T04:16:49.905Z,13771.7861
2023-05-19T04:17:58.015Z,13770.8574
2023-05-19T04:19:06.149Z,13770.2861
2023-05-19T04:20:14.223Z,13772.7861
2023-05-19T04:21:22.153Z,13773.5713
2023-05-19T04:22:30.205Z,13772.7861
2023-05-19T04:23:38.477Z,13768.1426
2023-05-19T04:24:46.253Z,13768.5713
2023-05-19T04:25:54.330Z,13768.3574
2023-05-19T04:27:02.374Z,13769.8574
2023-05-19T04:28:10.527Z,13769.0713
2023-05-19T04:29:18.791Z,13767.0000
2023-05-19T04:30:26.767Z,13766.1426
2023-05-19T04:31:34.999Z,13765.5000
2023-05-19T04:32:42.845Z,13763.0000
2023-05-19T04:33:50.924Z,13760.8574
2023-05-19T04:34:58.961Z,13757.8574
2023-05-19T04:36:07.003Z,13753.8574
2023-05-19T04:37:15.146Z,13750.8574
2023-05-19T04:38:23.157Z,13746.1426
2023-05-19T04:39:31.070Z,13744.1426
2023-05-19T04:40:39.158Z,13741.3574
2023-05-19T04:41:47.242Z,13740.5713
2023-05-19T04:42:55.411Z,13738.3574
2023-05-19T04:44:03.457Z,13739.2139
2023-05-19T04:45:11.565Z,13739.4287
2023-05-19T04:46:19.600Z,13739.2139
2023-05-19T04:47:27.895Z,13742.4287
2023-05-19T04:48:35.745Z,13742.4287
2023-05-19T04:49:43.832Z,13741.7861
2023-05-19T04:50:51.965Z,13739.8574
2023-05-19T04:51:59.926Z,13737.5713
2023-05-19T04:53:08.037Z,13736.9287
2023-05-19T04:54:15.902Z,13736.5000
2023-05-19T04:55:23.966Z,13738.7861
2023-05-19T04:56:32.024Z,13737.5713
2023-05-19T04:57:40.245Z,13738.0000
2023-05-19T04:58:48.317Z,13738.2139
2023-05-19T04:59:56.578Z,13739.1426
2023-05-19T05:01:04.380Z,13735.2139
2023-05-19T05:02:12.607Z,13734.2861
2023-05-19T05:03:20.695Z,13734.4287
2023-05-19T05:04:28.617Z,13735.2861
2023-05-19T05:05:36.769Z,13732.5000
2023-05-19T05:06:44.689Z,13727.9287
2023-05-19T05:07:52.811Z,13729.7861
2023-05-19T05:09:00.699Z,13733.4287
2023-05-19T05:10:08.780Z,13732.6426
2023-05-19T05:11:16.815Z,13730.0713
2023-05-19T05:12:25.000Z,13727.7139
2023-05-19T05:13:33.082Z,13723.2861
2023-05-19T05:14:41.145Z,13724.5713
2023-05-19T05:15:49.210Z,13727.2139
2023-05-19T05:16:57.385Z,13726.2861
2023-05-19T05:18:05.381Z,13724.7861
2023-05-19T05:19:13.595Z,13721.0713
2023-05-19T05:20:21.528Z,13722.2139
2023-05-19T05:21:29.503Z,13722.0713
2023-05-19T05:22:37.555Z,13725.6426
2023-05-19T05:23:45.519Z,13726.7861
2023-05-19T05:24:53.554Z,13730.4287
2023-05-19T05:26:01.614Z,13725.5000
2023-05-19T05:27:10.095Z,13724.6426
2023-05-19T05:28:17.929Z,13724.3574
2023-05-19T05:29:25.986Z,13725.6426
2023-05-19T05:30:33.957Z,13727.2139
2023-05-19T05:31:42.094Z,13728.5000
2023-05-19T05:32:50.211Z,13729.8574
2023-05-19T05:33:58.217Z,13729.5713
2023-05-19T05:35:06.240Z,13730.4287
2023-05-19T05:36:14.434Z,13730.1426
2023-05-19T05:37:22.371Z,13729.0000
2023-05-19T05:38:30.304Z,13733.2861
2023-05-19T05:39:38.365Z,13730.0713
2023-05-19T05:40:46.395Z,13727.8574
2023-05-19T05:41:54.616Z,13727.9287
2023-05-19T05:43:02.641Z,13725.7139
2023-05-19T05:44:10.700Z,13729.2139
2023-05-19T05:45:18.816Z,13730.0713
2023-05-19T05:46:27.076Z,13734.2861
2023-05-19T05:47:34.913Z,13734.6426
2023-05-19T05:48:43.035Z,13732.0000
2023-05-19T05:49:52.995Z,13728.9287
2023-05-19T05:51:03.929Z,13733.0664
2023-05-19T05:52:11.836Z,13732.5713
2023-05-19T05:53:19.940Z,13731.5713
2023-05-19T05:54:28.014Z,13737.0713
2023-05-19T05:55:36.185Z,13737.5000
2023-05-19T05:56:44.239Z,13734.2139
2023-05-19T05:57:52.305Z,13733.7139
2023-05-19T05:59:00.414Z,13734.7861
2023-05-19T06:00:08.574Z,13740.2861
2023-05-19T06:01:16.506Z,13738.6426
2023-05-19T06:02:24.579Z,13738.0713
2023-05-19T06:03:32.708Z,13738.0713
2023-05-19T06:04:40.769Z,13735.2861
2023-05-19T06:05:48.777Z,13735.8574
2023-05-19T06:06:56.638Z,13738.2139
2023-05-19T06:08:04.780Z,13737.0000
2023-05-19T06:09:12.820Z,13736.2861
2023-05-19T06:10:20.942Z,13736.0000
2023-05-19T06:11:29.040Z,13734.8574
2023-05-19T06:12:37.100Z,13738.2861
2023-05-19T06:13:45.337Z,13734.7139
2023-05-19T06:14:53.197Z,13731.5713
2023-05-19T06:16:02.244Z,13732.0713
2023-05-19T06:17:09.329Z,13736.1426
2023-05-19T06:18:17.448Z,13740.0713
2023-05-19T06:19:25.640Z,13744.0713
2023-05-19T06:20:33.567Z,13744.6426
2023-05-19T06:21:41.415Z,13749.2861
2023-05-19T06:22:49.511Z,13751.2139
2023-05-19T06:23:57.730Z,13750.6426
2023-05-19T06:25:05.921Z,13752.0000
2023-05-19T06:26:13.803Z,13749.5000
2023-05-19T06:27:21.831Z,13753.1426
2023-05-19T06:28:29.967Z,13753.2861
2023-05-19T06:29:38.079Z,13747.2139
2023-05-19T06:30:46.052Z,13744.3574
2023-05-19T06:31:54.250Z,13745.9287
2023-05-19T06:33:02.177Z,13749.1426
2023-05-19T06:34:10.251Z,13750.7139
2023-05-19T06:35:18.193Z,13749.0713
2023-05-19T06:36:26.225Z,13745.9287
2023-05-19T06:37:34.301Z,13746.9287
2023-05-19T06:38:42.467Z,13743.7139
2023-05-19T06:39:50.505Z,13749.2861
2023-05-19T06:40:58.830Z,13749.5713
2023-05-19T06:42:06.671Z,13749.5000
2023-05-19T06:43:14.705Z,13746.8574
2023-05-19T06:44:22.752Z,13750.1426
2023-05-19T06:45:30.790Z,13749.7139
2023-05-19T06:46:39.204Z,13746.6426
2023-05-19T06:47:46.982Z,13747.7861
2023-05-19T06:48:55.170Z,13747.7139
2023-05-19T06:50:02.969Z,13754.7139
2023-05-19T06:51:11.027Z,13751.7139
2023-05-19T06:52:19.104Z,13753.2139
2023-05-19T06:53:27.276Z,13750.8574
2023-05-19T06:54:35.344Z,13752.7139
2023-05-19T06:55:57.540Z,13750.8574
2023-05-19T06:56:56.528Z,13749.8662
2023-05-19T06:58:04.394Z,13753.4287
2023-05-19T06:59:12.448Z,13753.0000
2023-05-19T07:00:22.894Z,13749.7861
2023-05-19T07:01:33.643Z,13750.0664
2023-05-19T07:02:41.660Z,13745.9287
2023-05-19T07:03:49.488Z,13744.4287
2023-05-19T07:04:57.486Z,13750.5713
2023-05-19T07:06:07.931Z,13748.3574
2023-05-19T07:07:18.544Z,13750.6670
2023-05-19T07:08:26.679Z,13748.3574
2023-05-19T07:09:34.932Z,13740.5713
2023-05-19T07:10:42.819Z,13741.7861
2023-05-19T07:11:50.851Z,13741.7139
2023-05-19T07:12:59.040Z,13744.8574
2023-05-19T07:14:06.900Z,13742.4287
2023-05-19T07:15:14.927Z,13742.0713
2023-05-19T07:16:23.037Z,13744.2861
2023-05-19T07:17:31.040Z,13735.5713
2023-05-19T07:18:39.145Z,13733.5713
2023-05-19T07:19:47.221Z,13729.3574
2023-05-19T07:20:55.214Z,13732.7861
2023-05-19T07:22:03.470Z,13737.3574
2023-05-19T07:23:11.477Z,13734.5000
2023-05-19T07:24:19.469Z,13736.5000
2023-05-19T07:25:27.552Z,13732.2861
2023-05-19T07:26:35.642Z,13730.6426
2023-05-19T07:27:43.768Z,13727.5713
2023-05-19T07:28:51.712Z,13721.2139
2023-05-19T07:29:59.812Z,13718.3574
2023-05-19T07:31:07.753Z,13717.6426
2023-05-19T07:32:15.876Z,13711.3574
2023-05-19T07:33:23.925Z,13711.3574
2023-05-19T07:34:32.074Z,13709.2861
2023-05-19T07:35:40.147Z,13709.8574
2023-05-19T07:36:48.182Z,13709.2861
2023-05-19T07:37:56.352Z,13699.2139
2023-05-19T07:39:04.344Z,13701.2861
2023-05-19T07:40:12.372Z,13703.5713
2023-05-19T07:41:20.387Z,13703.7139
2023-05-19T07:42:28.545Z,13708.7861
2023-05-19T07:43:36.598Z,13711.8574
2023-05-19T07:44:44.809Z,13710.0000
2023-05-19T07:45:52.776Z,13705.8574
2023-05-19T07:47:00.687Z,13705.3574
2023-05-19T07:48:08.987Z,13703.0713
2023-05-19T07:49:16.726Z,13706.9287
2023-05-19T07:50:24.792Z,13702.6426
2023-05-19T07:51:32.868Z,13705.2139
2023-05-19T07:52:41.151Z,13700.1426
2023-05-19T07:53:49.154Z,13693.5000
2023-05-19T07:54:57.144Z,13688.6426
2023-05-19T07:56:05.391Z,13686.4287
2023-05-19T07:57:13.376Z,13684.7861
2023-05-19T07:58:21.337Z,13680.4287
2023-05-19T07:59:29.386Z,13680.7861
2023-05-19T08:00:37.540Z,13681.5713
2023-05-19T08:01:45.519Z,13680.4287
2023-05-19T08:02:53.674Z,13682.0000
2023-05-19T08:04:01.580Z,13677.4287
2023-05-19T08:05:09.573Z,13672.8574
2023-05-19T08:06:17.674Z,13672.7861
2023-05-19T08:07:26.023Z,13677.0000
2023-05-19T08:08:34.084Z,13677.1426
2023-05-19T08:09:41.946Z,13675.1426
2023-05-19T08:10:50.058Z,13676.0713
2023-05-19T08:11:58.193Z,13678.9287
2023-05-19T08:13:06.102Z,13683.7139
2023-05-19T08:14:14.173Z,13689.1426
2023-05-19T08:15:22.308Z,13689.3574
2023-05-19T08:16:30.635Z,13692.5713
2023-05-19T08:17:38.319Z,13697.9287
2023-05-19T08:18:46.387Z,13697.2139
2023-05-19T08:19:54.332Z,13695.9287
2023-05-19T08:21:02.541Z,13691.5713
2023-05-19T08:22:10.615Z,13693.5000
2023-05-19T08:23:18.685Z,13693.1426
2023-05-19T08:24:26.792Z,13692.0000
2023-05-19T08:25:34.812Z,13696.0000
2023-05-19T08:26:42.879Z,13698.5000
2023-05-19T08:27:51.089Z,13699.0000
2023-05-19T08:28:59.029Z,13698.6426
2023-05-19T08:30:07.024Z,13698.5713
2023-05-19T08:31:15.247Z,13696.6426
2023-05-19T08:32:23.099Z,13700.6426
2023-05-19T08:33:31.083Z,13702.5713
2023-05-19T08:34:39.139Z,13701.7861
2023-05-19T08:35:47.489Z,13693.2861
2023-05-19T08:36:55.546Z,13697.0000
2023-05-19T08:38:03.453Z,13701.0000
2023-05-19T08:39:11.591Z,13698.3574
2023-05-19T08:40:19.656Z,13702.0713
2023-05-19T08:41:27.820Z,13701.7139
2023-05-19T08:42:35.767Z,13703.8574
2023-05-19T08:43:43.831Z,13702.1426
2023-05-19T08:44:52.187Z,13700.3574
2023-05-19T08:45:59.896Z,13694.6426
2023-05-19T08:47:08.021Z,13694.2861
2023-05-19T08:48:16.003Z,13690.7861
2023-05-19T08:49:25.570Z,13689.1426
2023-05-19T08:50:32.506Z,13689.5713
2023-05-19T08:51:40.155Z,13689.8574
2023-05-19T08:52:51.796Z,13689.1426
2023-05-19T08:54:01.288Z,13684.0664
2023-05-19T08:55:09.340Z,13677.0000
2023-05-19T08:56:17.331Z,13672.8574
2023-05-19T08:57:25.475Z,13670.4287
2023-05-19T08:58:33.515Z,13670.3574
2023-05-19T08:59:41.402Z,13672.0000
2023-05-19T09:00:49.517Z,13670.5713
2023-05-19T09:01:57.578Z,13666.9287
2023-05-19T09:04:13.911Z,13670.5000
2023-05-19T09:05:21.914Z,13668.8574
2023-05-19T09:06:29.921Z,13671.1426
2023-05-19T09:07:38.072Z,13665.8574
2023-05-19T09:08:45.998Z,13663.9287
2023-05-19T09:09:54.349Z,13667.5713
2023-05-19T09:11:02.171Z,13670.6426
2023-05-19T09:12:10.291Z,13676.0000
2023-05-19T09:13:18.255Z,13676.5713
2023-05-19T09:14:26.216Z,13674.5000
2023-05-19T09:15:34.602Z,13670.6426
2023-05-19T09:16:42.389Z,13672.5000
2023-05-19T09:17:50.640Z,13669.5000
2023-05-19T09:18:58.621Z,13671.7861
2023-05-19T09:20:06.680Z,13680.1426
2023-05-19T09:21:14.716Z,13682.0713
2023-05-19T09:22:22.836Z,13682.7139
2023-05-19T09:23:30.819Z,13681.6426
2023-05-19T09:24:38.863Z,13680.3574
2023-05-19T09:25:46.981Z,13680.7861
2023-05-19T09:26:55.756Z,13678.7861
2023-05-19T09:28:07.868Z,13681.4668
2023-05-19T09:29:15.853Z,13679.4287
2023-05-19T09:30:23.885Z,13682.0713
2023-05-19T09:31:32.161Z,13679.6426
2023-05-19T09:32:40.165Z,13684.0713
2023-05-19T09:33:48.281Z,13679.3574
2023-05-19T09:34:56.529Z,13681.0000
2023-05-19T09:36:04.320Z,13677.1426
2023-05-19T09:37:12.370Z,13679.7139
2023-05-19T09:38:20.564Z,13675.2139
2023-05-19T09:39:28.553Z,13673.9287
2023-05-19T09:40:36.607Z,13673.2861
2023-05-19T09:41:44.667Z,13670.0000
2023-05-19T09:42:52.572Z,13669.3574
2023-05-19T09:44:00.678Z,13670.4287
2023-05-19T09:45:08.678Z,13669.7861
2023-05-19T09:46:16.885Z,13667.2861
2023-05-19T09:47:24.903Z,13670.4287
2023-05-19T09:48:32.991Z,13667.4287
2023-05-19T09:49:41.279Z,13670.2861
2023-05-19T09:50:49.260Z,13669.7139
2023-05-19T09:51:57.195Z,13667.5713
2023-05-19T09:53:05.261Z,13671.2861
2023-05-19T09:54:13.385Z,13671.3574
2023-05-19T09:55:21.358Z,13663.5000
2023-05-19T09:56:29.442Z,13661.2861
2023-05-19T09:57:37.358Z,13665.8574
2023-05-19T09:58:45.414Z,13661.5000
2023-05-19T09:59:53.487Z,13658.9287
2023-05-19T10:01:01.631Z,13656.4287
2023-05-19T10:02:09.760Z,13654.7139
2023-05-19T10:03:17.828Z,13660.5713
2023-05-19T10:04:25.922Z,13661.8574
2023-05-19T10:05:34.320Z,13661.9287
2023-05-19T10:06:42.296Z,13664.4287
2023-05-19T10:07:50.044Z,13659.3574
2023-05-19T10:08:58.157Z,13659.0000
2023-05-19T10:10:06.175Z,13655.6426
2023-05-19T10:11:14.209Z,13653.3574
2023-05-19T10:12:22.159Z,13641.5713
2023-05-19T10:13:30.232Z,13645.4287
2023-05-19T10:14:38.275Z,13647.5000
2023-05-19T10:15:57.327Z,13647.7861
2023-05-19T10:16:59.481Z,13645.3330
2023-05-19T10:18:07.545Z,13644.7861
2023-05-19T10:19:15.548Z,13643.0713
2023-05-19T10:20:23.573Z,13639.5000
2023-05-19T10:21:31.667Z,13645.4287
2023-05-19T10:22:39.753Z,13649.6426
2023-05-19T10:23:47.895Z,13654.9287
2023-05-19T10:24:55.820Z,13653.2139
2023-05-19T10:26:03.754Z,13654.2139
2023-05-19T10:27:11.834Z,13651.4287
2023-05-19T10:28:19.921Z,13649.4287
2023-05-19T10:29:28.129Z,13647.0000
2023-05-19T10:30:36.110Z,13642.5713
2023-05-19T10:31:44.338Z,13645.7861
2023-05-19T10:32:52.308Z,13644.0713
2023-05-19T10:34:00.398Z,13646.7861
2023-05-19T10:35:08.460Z,13644.9287
2023-05-19T10:36:16.535Z,13642.7139
2023-05-19T10:37:24.538Z,13640.5713
2023-05-19T10:38:32.543Z,13641.2139
2023-05-19T10:39:40.657Z,13638.8574
2023-05-19T10:40:48.543Z,13638.7861
2023-05-19T10:41:56.629Z,13641.8574
2023-05-19T10:43:04.672Z,13644.0713
2023-05-19T10:44:12.916Z,13647.0000
2023-05-19T10:45:21.127Z,13643.5000
2023-05-19T10:46:28.959Z,13640.0713
2023-05-19T10:47:37.046Z,13645.4287
2023-05-19T10:48:45.125Z,13646.5713
2023-05-19T10:49:53.344Z,13650.4287
2023-05-19T10:51:01.272Z,13650.6426
2023-05-19T10:52:09.369Z,13649.8574
2023-05-19T10:53:17.349Z,13641.5713
2023-05-19T10:54:25.689Z,13646.0000
2023-05-19T10:55:33.525Z,13644.6426
2023-05-19T10:56:41.443Z,13642.3574
2023-05-19T10:57:49.510Z,13645.4287
2023-05-19T10:58:57.644Z,13643.2139
2023-05-19T11:00:05.692Z,13641.6426
2023-05-19T11:01:13.837Z,13640.5000
2023-05-19T11:02:21.807Z,13638.7861
2023-05-19T11:04:37.913Z,13635.2139
2023-05-19T11:05:46.011Z,13628.2139
2023-05-19T11:06:54.117Z,13628.6426
2023-05-19T11:08:02.201Z,13623.4287
2023-05-19T11:09:10.160Z,13625.9287
2023-05-19T11:10:18.133Z,13624.9287
2023-05-19T11:11:26.202Z,13624.7139
2023-05-19T11:12:34.210Z,13620.9287
2023-05-19T11:13:42.405Z,13622.0713
2023-05-19T11:14:50.451Z,13626.2139
2023-05-19T11:15:58.562Z,13625.5000
2023-05-19T11:17:06.728Z,13627.2139
2023-05-19T11:18:14.703Z,13628.4287
2023-05-19T11:19:22.886Z,13625.5713
2023-05-19T11:20:30.794Z,13631.5000
2023-05-19T11:21:38.962Z,13633.6426
2023-05-19T11:22:46.892Z,13629.7861
2023-05-19T11:23:55.121Z,13623.4287
2023-05-19T11:25:02.865Z,13623.0000
2023-05-19T11:26:10.961Z,13619.8574
2023-05-19T11:27:19.109Z,13625.5713
2023-05-19T11:28:27.277Z,13628.0000
2023-05-19T11:29:35.245Z,13631.7139
2023-05-19T11:30:43.347Z,13637.0000
2023-05-19T11:31:51.555Z,13636.7139
2023-05-19T11:32:59.442Z,13638.9287
2023-05-19T11:34:07.503Z,13631.7139
2023-05-19T11:35:15.668Z,13635.7139
2023-05-19T11:36:23.630Z,13648.7139
2023-05-19T11:37:31.675Z,13650.7139
2023-05-19T11:38:39.690Z,13648.7139
2023-05-19T11:39:47.689Z,13647.0713
2023-05-19T11:40:55.749Z,13647.2861
2023-05-19T11:42:03.824Z,13645.0713
2023-05-19T11:43:11.915Z,13644.0000
2023-05-19T11:44:20.007Z,13634.2861
2023-05-19T11:45:28.079Z,13627.1426
2023-05-19T11:46:36.472Z,13628.2861
2023-05-19T11:48:00.827Z,13624.4287
2023-05-19T11:48:57.393Z,13617.2002
2023-05-19T11:50:05.215Z,13609.3574
2023-05-19T11:51:13.335Z,13600.7861
2023-05-19T11:52:21.383Z,13599.2139
2023-05-19T11:53:29.246Z,13592.0000
2023-05-19T11:54:37.332Z,13590.2139
2023-05-19T11:55:45.803Z,13588.0000
2023-05-19T11:56:53.713Z,13585.0713
2023-05-19T11:58:04.649Z,13579.2861
2023-05-19T11:59:14.546Z,13577.5332
2023-05-19T12:00:22.573Z,13574.3574
2023-05-19T12:01:30.637Z,13568.9287
2023-05-19T12:02:38.864Z,13558.7139
2023-05-19T12:03:46.922Z,13556.4287
2023-05-19T12:04:54.963Z,13554.3574
2023-05-19T12:06:02.961Z,13562.0713
2023-05-19T12:07:10.847Z,13558.7139
2023-05-19T12:08:18.997Z,13561.4287
2023-05-19T12:09:27.030Z,13559.0713
2023-05-19T12:10:35.133Z,13561.2139
2023-05-19T12:11:43.207Z,13561.6426
2023-05-19T12:12:51.226Z,13560.8574
2023-05-19T12:13:59.325Z,13569.3574
2023-05-19T12:15:07.347Z,13570.2139
2023-05-19T12:16:15.522Z,13568.0713
2023-05-19T12:17:23.602Z,13570.7139
2023-05-19T12:18:31.520Z,13570.4287
2023-05-19T12:19:39.593Z,13573.4287
2023-05-19T12:20:47.776Z,13580.3574
2023-05-19T12:21:55.675Z,13576.9287
2023-05-19T12:23:03.850Z,13576.9287
2023-05-19T12:24:11.812Z,13575.7139
2023-05-19T12:25:19.857Z,13573.1426
2023-05-19T12:26:28.049Z,13569.0000
2023-05-19T12:27:35.971Z,13568.7139
2023-05-19T12:28:44.156Z,13567.5000
2023-05-19T12:29:52.170Z,13572.5000
2023-05-19T12:31:00.332Z,13565.4287
2023-05-19T12:32:08.425Z,13558.7861
2023-05-19T12:33:16.468Z,13553.6426
2023-05-19T12:34:24.417Z,13546.2861
2023-05-19T12:35:32.488Z,13546.2139
2023-05-19T12:36:40.494Z,13542.5713
2023-05-19T12:37:48.524Z,13541.2139